デリー の空港の天気 - METARとTAF

インディラ・ガンディー国際空港 ( VIDP / DEL ) - インド デリー
飛行場実況気象(Metar)
観測時間07/01 20:00 IST (07/01 14:30 UTC)
風向・風速静穏 0m/s
視程3200m
天気現象もや
全天の4割程度の雲 雲底高度 1070m
全天の8割程度の雲 雲底高度 3050m
気温28℃
湿度89%
気圧999hPa
METARVIDP 011430Z 00000KT 3200 BR SCT035 BKN100 28/26 Q0999 NOSIG
過去の天気等 Google飛行場航空写真 Wunderground天気予報

過去48時間のMETAR

飛行場予報(TAF)
発表時間: 7/01 16:30 IST (7/01 11:00 UTC)
予報対象時間: 1日17時 IST ~ 2日23時 IST
風向・風速南南西 3m/s
視程3200m
天気現象もや 弱い雨
全天の4割程度の雲 雲底高度 910m
全天の8割程度の雲 雲底高度 2740m
1日18時 IST ~ 1日22時 IST に一時的に
風向・風速南南東 5m/s 瞬間風速 10m/s
視程2000m
天気現象弱い雷雨
全天の4割程度の雲 雲底高度 760m
少しの積乱雲 雲底高度 1070m
全天を覆う雲 雲底高度 2740m
2日4時 IST ~ 2日6時 IST に徐々に
視程2200m
天気現象もや 霧雨
2日10時 IST ~ 2日12時 IST に徐々に
風向・風速南南東 4m/s
視程3200m
天気現象煙霧
2日15時 IST ~ 2日19時 IST に一時的に
視程2000m
天気現象弱い雷雨
全天の8割程度の雲 雲底高度 910m
少しの積乱雲 雲底高度 1070m
全天を覆う雲 雲底高度 2440m
2日20時 IST ~ 2日22時 IST に徐々に
風向・風速南西 3m/s
視程2500m
天気現象もや
TAF VIDP 011100Z 0112/0218 21006KT 3200 BR -RA SCT030 BKN090
TEMPO 0113/0117 16010G20KT 2000 -TSRA SCT025 FEW035CB OVC090
BECMG 0123/0201 2200 BR DZ
BECMG 0205/0207 16008KT 3200 HZ
TEMPO 0210/0214 2000 -TSRA BKN030 FEW035CB OVC080
BECMG 0215/0217 23005KT 2500 BR